Time;durP1;ratioP1;P1;durP2;ratioP2;P2;SDS_P1;SDS_P2;PMS_P1;PMS_P2;Temp;Humidity;BMP_temperature;BMP_pressure;BME280_temperature;BME280_humidity;BME280_pressure;Samples;Min_cycle;Max_cycle;Signal;HPM_P1;HPM_P2
2022/04/15 00:00:12;;;;;;;10.90;6.68;;;;;16.10;102343.00;;;;5049335;28;20275;-79
2022/04/15 00:02:40;;;;;;;11.18;6.47;;;;;16.10;102347.00;;;;5062128;28;20203;-79
2022/04/15 00:05:29;;;;;;;9.38;6.70;;;;;16.00;102348.00;;;;5060471;28;20550;-79
2022/04/15 00:07:57;;;;;;;8.85;5.78;;;;;16.00;102352.00;;;;5048406;28;20680;-79
2022/04/15 00:10:27;;;;;;;8.70;6.15;;;;;16.00;102349.00;;;;5050987;28;20204;-78
2022/04/15 00:12:55;;;;;;;10.05;5.85;;;;;15.90;102357.00;;;;5056855;28;20223;-79
2022/04/15 00:15:23;;;;;;;10.80;5.72;;;;;15.90;102348.00;;;;5051566;28;20658;-78
2022/04/15 00:17:50;;;;;;;7.80;5.72;;;;;15.90;102350.00;;;;5049833;28;20200;-79
2022/04/15 00:20:17;;;;;;;7.88;6.40;;;;;15.90;102348.00;;;;5064618;28;20199;-79
2022/04/15 00:22:45;;;;;;;9.02;5.55;;;;;15.80;102352.00;;;;5059057;28;20206;-79
2022/04/15 00:25:13;;;;;;;7.63;5.78;;;;;15.80;102356.00;;;;5067585;28;20191;-79
2022/04/15 00:27:41;;;;;;;9.45;7.05;;;;;15.80;102357.00;;;;5052318;28;20233;-79
2022/04/15 00:30:10;;;;;;;9.02;6.35;;;;;15.80;102358.00;;;;5068922;28;20202;-79
2022/04/15 00:32:38;;;;;;;7.68;5.45;;;;;15.80;102362.00;;;;5067658;28;20222;-79
2022/04/15 00:35:06;;;;;;;9.35;6.00;;;;;15.80;102361.00;;;;5064344;28;20195;-79
2022/04/15 00:37:34;;;;;;;9.30;5.95;;;;;15.90;102365.00;;;;5063374;28;20226;-78
2022/04/15 00:40:02;;;;;;;7.88;6.22;;;;;15.90;102367.00;;;;5067575;28;20207;-79
2022/04/15 00:42:31;;;;;;;7.70;5.10;;;;;15.90;102370.00;;;;5055404;28;20203;-79
2022/04/15 00:45:00;;;;;;;11.55;7.15;;;;;15.90;102376.00;;;;5058625;28;20211;-79
2022/04/15 00:47:40;;;;;;;7.72;5.10;;;;;15.90;102374.00;;;;5048390;28;20195;-79
2022/04/15 00:50:08;;;;;;;6.88;5.22;;;;;15.90;102375.00;;;;5068504;28;20194;-79
2022/04/15 00:52:40;;;;;;;8.25;5.68;;;;;15.90;102373.00;;;;5067044;28;20257;-79
2022/04/15 00:55:08;;;;;;;9.20;5.47;;;;;15.90;102370.00;;;;5062615;28;20206;-79
2022/04/15 00:57:40;;;;;;;5.85;5.07;;;;;15.90;102375.00;;;;5058290;28;20246;-79
2022/04/15 01:00:10;;;;;;;7.50;5.40;;;;;15.90;102374.00;;;;5048880;28;20192;-79
2022/04/15 01:02:38;;;;;;;5.03;4.15;;;;;15.90;102375.00;;;;5061093;28;20204;-79
2022/04/15 01:05:08;;;;;;;7.50;4.60;;;;;15.80;102375.00;;;;5067844;28;20191;-79
2022/04/15 01:07:37;;;;;;;7.25;5.03;;;;;15.90;102376.00;;;;5063651;28;20206;-79
2022/04/15 01:10:07;;;;;;;5.68;4.53;;;;;15.90;102382.00;;;;5068636;28;20198;-78
2022/04/15 01:12:39;;;;;;;5.78;4.93;;;;;15.80;102382.00;;;;5065832;28;20317;-79
2022/04/15 01:15:09;;;;;;;4.93;4.43;;;;;15.90;102385.00;;;;5058096;28;20204;-79
2022/04/15 01:17:36;;;;;;;5.20;4.70;;;;;15.90;102386.00;;;;5053384;28;20199;-79
2022/04/15 01:20:07;;;;;;;5.75;4.30;;;;;15.90;102388.00;;;;5060075;28;20618;-79
2022/04/15 01:22:38;;;;;;;5.13;3.95;;;;;15.80;102388.00;;;;5059680;28;20257;-78
2022/04/15 01:25:12;;;;;;;5.28;4.05;;;;;15.80;102394.00;;;;5068700;28;20194;-79
2022/04/15 01:27:41;;;;;;;4.72;3.70;;;;;15.80;102391.00;;;;5060468;28;20648;-79
2022/04/15 01:30:13;;;;;;;5.45;4.30;;;;;15.80;102388.00;;;;5067138;28;20198;-79
2022/04/15 01:32:40;;;;;;;6.43;4.25;;;;;15.80;102390.00;;;;5062141;28;20218;-79
2022/04/15 01:35:09;;;;;;;6.45;4.18;;;;;15.80;102402.00;;;;5066724;28;20198;-79
2022/04/15 01:37:37;;;;;;;5.38;3.97;;;;;15.80;102394.00;;;;5065409;28;20704;-79
2022/04/15 01:40:05;;;;;;;4.45;3.95;;;;;15.80;102400.00;;;;5067407;28;20195;-78
2022/04/15 01:42:35;;;;;;;5.82;3.78;;;;;15.80;102394.00;;;;5064560;28;20199;-80
2022/04/15 01:45:02;;;;;;;4.30;3.88;;;;;15.80;102398.00;;;;5066272;28;20195;-79
2022/04/15 01:47:30;;;;;;;4.13;3.72;;;;;15.80;102403.00;;;;5066867;28;20199;-79
2022/04/15 01:49:57;;;;;;;4.97;4.20;;;;;15.80;102397.00;;;;5054160;28;20204;-79
2022/04/15 01:52:24;;;;;;;5.22;4.10;;;;;15.80;102398.00;;;;5051078;28;20211;-79
2022/04/15 01:54:51;;;;;;;5.93;4.15;;;;;15.90;102398.00;;;;5071205;28;20206;-79
2022/04/15 01:57:19;;;;;;;5.20;3.83;;;;;15.90;102409.00;;;;5066093;28;20198;-79
2022/04/15 01:59:48;;;;;;;5.53;4.30;;;;;15.90;102407.00;;;;5065900;28;20192;-79
2022/04/15 02:02:15;;;;;;;5.25;3.85;;;;;15.90;102407.00;;;;5056451;28;20191;-79
2022/04/15 02:04:43;;;;;;;5.85;4.32;;;;;15.90;102408.00;;;;5068928;28;20252;-79
2022/04/15 02:07:10;;;;;;;6.68;4.53;;;;;16.00;102406.00;;;;5056774;28;20210;-79
2022/04/15 02:09:37;;;;;;;7.05;4.32;;;;;16.00;102412.00;;;;5051453;28;20570;-79
2022/04/15 02:12:05;;;;;;;5.55;3.97;;;;;16.00;102419.00;;;;5066829;28;20668;-79
2022/04/15 02:14:33;;;;;;;5.45;4.25;;;;;16.00;102422.00;;;;5065520;28;20613;-79
2022/04/15 02:17:01;;;;;;;5.53;4.28;;;;;16.00;102413.00;;;;5051995;28;20203;-79
2022/04/15 02:19:28;;;;;;;5.97;4.63;;;;;16.00;102409.00;;;;5055861;28;20226;-79
2022/04/15 02:21:56;;;;;;;6.35;4.47;;;;;16.00;102409.00;;;;5057377;28;20207;-79
2022/04/15 02:24:23;;;;;;;5.85;4.18;;;;;16.00;102420.00;;;;5070385;28;20233;-79
2022/04/15 02:26:50;;;;;;;6.80;5.15;;;;;16.00;102412.00;;;;5065694;28;20225;-79
2022/04/15 02:29:17;;;;;;;6.38;4.25;;;;;16.00;102416.00;;;;5052239;28;20196;-79
2022/04/15 02:31:45;;;;;;;5.80;4.50;;;;;16.00;102410.00;;;;5068487;28;20191;-79
2022/04/15 02:34:13;;;;;;;5.88;5.07;;;;;16.00;102410.00;;;;5071164;28;20237;-78
2022/04/15 02:36:40;;;;;;;5.22;3.60;;;;;16.00;102416.00;;;;5057773;28;20219;-79
2022/04/15 02:39:11;;;;;;;5.07;3.53;;;;;16.00;102421.00;;;;5068697;28;20221;-79
2022/04/15 02:41:40;;;;;;;4.45;3.63;;;;;16.00;102423.00;;;;5064647;28;20299;-79
2022/04/15 02:44:09;;;;;;;4.53;3.30;;;;;15.90;102420.00;;;;5053884;28;20203;-79
2022/04/15 02:46:36;;;;;;;3.75;3.13;;;;;15.90;102419.00;;;;5066452;28;20199;-79
2022/04/15 02:49:04;;;;;;;3.53;2.83;;;;;15.90;102424.00;;;;5068676;28;20194;-79
2022/04/15 02:51:34;;;;;;;5.20;3.58;;;;;15.90;102421.00;;;;5067890;28;20669;-79
2022/04/15 02:54:01;;;;;;;4.22;3.25;;;;;15.90;102431.00;;;;5055058;28;20219;-79
2022/04/15 02:56:29;;;;;;;4.68;3.47;;;;;15.90;102428.00;;;;5059236;28;20649;-79
2022/04/15 02:58:57;;;;;;;4.40;3.40;;;;;15.90;102423.00;;;;5056772;28;20198;-79
2022/04/15 03:01:24;;;;;;;6.47;3.53;;;;;15.90;102425.00;;;;5057052;28;20196;-80
2022/04/15 03:03:51;;;;;;;5.22;3.10;;;;;15.90;102425.00;;;;5055220;28;20241;-78
2022/04/15 03:06:19;;;;;;;5.28;3.35;;;;;15.90;102424.00;;;;5065577;28;20575;-79
2022/04/15 03:08:47;;;;;;;3.63;2.88;;;;;15.90;102432.00;;;;5069844;28;20199;-79
2022/04/15 03:11:15;;;;;;;4.50;3.30;;;;;15.90;102446.00;;;;5066878;28;20198;-79
2022/04/15 03:13:42;;;;;;;3.15;2.83;;;;;15.90;102441.00;;;;5068770;28;20269;-79
2022/04/15 03:16:09;;;;;;;4.10;2.70;;;;;15.90;102441.00;;;;5058230;28;20207;-79
2022/04/15 03:18:37;;;;;;;8.77;3.90;;;;;16.00;102441.00;;;;5058772;28;20206;-79
2022/04/15 03:21:05;;;;;;;3.83;3.20;;;;;16.00;102436.00;;;;5062070;28;20245;-79
2022/04/15 03:23:32;;;;;;;5.90;3.42;;;;;16.00;102431.00;;;;5069916;28;20187;-79
2022/04/15 03:26:01;;;;;;;5.28;2.90;;;;;16.00;102435.00;;;;5063394;28;20188;-79
2022/04/15 03:28:28;;;;;;;4.00;2.83;;;;;16.00;102433.00;;;;5069591;28;20214;-79
2022/04/15 03:30:55;;;;;;;3.63;3.10;;;;;16.00;102427.00;;;;5067558;28;20202;-79
2022/04/15 03:33:23;;;;;;;4.53;2.92;;;;;16.00;102438.00;;;;5053925;28;20273;-79
2022/04/15 03:35:51;;;;;;;3.63;2.90;;;;;16.00;102441.00;;;;5059418;28;20600;-79
2022/04/15 03:38:18;;;;;;;5.40;2.80;;;;;16.00;102435.00;;;;5050811;28;20188;-79
2022/04/15 03:40:45;;;;;;;3.97;2.80;;;;;16.00;102449.00;;;;5065227;28;20203;-79
2022/04/15 03:43:14;;;;;;;3.53;3.08;;;;;16.00;102446.00;;;;5069284;28;20198;-79
2022/04/15 03:45:41;;;;;;;4.97;3.10;;;;;16.00;102452.00;;;;5068199;28;20190;-79
2022/04/15 03:48:08;;;;;;;5.07;3.35;;;;;16.00;102452.00;;;;5068264;28;20198;-79
2022/04/15 03:50:36;;;;;;;3.67;3.05;;;;;16.00;102450.00;;;;5049870;28;20196;-78
2022/04/15 03:53:03;;;;;;;4.43;2.88;;;;;16.00;102454.00;;;;5050246;28;20222;-79
2022/04/15 03:55:30;;;;;;;6.82;3.22;;;;;16.10;102460.00;;;;5050869;28;20594;-79
2022/04/15 03:57:57;;;;;;;4.13;3.15;;;;;16.10;102459.00;;;;5062733;28;20649;-79
2022/04/15 04:00:26;;;;;;;3.13;2.78;;;;;16.10;102457.00;;;;5056136;28;20630;-79
2022/04/15 04:02:54;;;;;;;4.13;3.17;;;;;16.10;102455.00;;;;5069916;28;20211;-79
2022/04/15 04:05:23;;;;;;;3.53;2.78;;;;;16.10;102453.00;;;;5067971;28;20252;-79
2022/04/15 04:07:51;;;;;;;3.15;2.83;;;;;16.10;102456.00;;;;5056054;28;20203;-80
2022/04/15 04:10:18;;;;;;;4.90;2.70;;;;;16.10;102454.00;;;;5068230;28;20195;-79
2022/04/15 04:12:48;;;;;;;4.50;3.05;;;;;16.10;102456.00;;;;5066395;28;20199;-80
2022/04/15 04:15:15;;;;;;;4.18;2.92;;;;;16.20;102456.00;;;;5066841;28;20191;-79
2022/04/15 04:17:46;;;;;;;5.47;2.78;;;;;16.20;102459.00;;;;5062822;28;20187;-79
2022/04/15 04:20:16;;;;;;;5.03;2.50;;;;;16.20;102464.00;;;;5056251;28;20179;-80
2022/04/15 04:22:43;;;;;;;5.03;3.15;;;;;16.20;102467.00;;;;5064136;28;20207;-79
2022/04/15 04:25:11;;;;;;;3.00;2.67;;;;;16.20;102467.00;;;;5065418;28;20183;-79
2022/04/15 04:27:39;;;;;;;4.63;2.65;;;;;16.20;102466.00;;;;5053873;28;20219;-79
2022/04/15 04:30:08;;;;;;;3.35;2.67;;;;;16.20;102464.00;;;;5061277;28;20224;-79
2022/04/15 04:32:35;;;;;;;5.20;3.10;;;;;16.20;102468.00;;;;5048912;28;20245;-80
2022/04/15 04:35:05;;;;;;;4.43;2.40;;;;;16.20;102472.00;;;;5057145;28;20230;-79
2022/04/15 04:37:33;;;;;;;2.78;2.08;;;;;16.20;102475.00;;;;5065579;28;20706;-79
2022/04/15 04:40:00;;;;;;;3.78;2.35;;;;;16.20;102476.00;;;;5050141;28;20192;-79
2022/04/15 04:42:28;;;;;;;2.80;2.50;;;;;16.20;102487.00;;;;5067982;28;20202;-79
2022/04/15 04:44:55;;;;;;;2.53;2.15;;;;;16.20;102484.00;;;;5064187;28;20789;-79
2022/04/15 04:47:23;;;;;;;3.28;2.38;;;;;16.20;102478.00;;;;5049157;28;20676;-79
2022/04/15 04:49:52;;;;;;;4.25;2.75;;;;;16.30;102484.00;;;;5052419;28;20221;-79
2022/04/15 04:52:21;;;;;;;4.22;2.47;;;;;16.20;102489.00;;;;5067650;28;20195;-78
2022/04/15 04:54:48;;;;;;;2.95;2.30;;;;;16.20;102493.00;;;;5069563;28;20227;-78
2022/04/15 04:57:16;;;;;;;5.38;2.40;;;;;16.20;102499.00;;;;5077855;28;20199;-78
2022/04/15 04:59:45;;;;;;;4.78;2.40;;;;;16.20;102503.00;;;;5085617;28;20195;-79
2022/04/15 05:02:12;;;;;;;2.60;1.77;;;;;16.20;102503.00;;;;5074768;28;20196;-79
2022/04/15 05:04:40;;;;;;;3.72;1.85;;;;;16.30;102512.00;;;;5066918;28;20234;-79
2022/04/15 05:07:07;;;;;;;2.58;2.13;;;;;16.30;102511.00;;;;5087045;28;20213;-79
2022/04/15 05:09:41;;;;;;;4.88;2.80;;;;;16.30;102509.00;;;;5081153;28;20210;-79
2022/04/15 05:12:10;;;;;;;8.02;2.97;;;;;16.30;102517.00;;;;5082848;28;20198;-78
2022/04/15 05:14:37;;;;;;;4.70;2.13;;;;;16.30;102512.00;;;;5071080;28;20270;-78
2022/04/15 05:17:05;;;;;;;5.70;1.88;;;;;16.30;102523.00;;;;5080924;28;20234;-78
2022/04/15 05:19:32;;;;;;;2.35;2.00;;;;;16.30;102530.00;;;;5078508;28;20206;-78
2022/04/15 05:21:59;;;;;;;2.67;2.03;;;;;16.20;102527.00;;;;5065372;28;20918;-79
2022/04/15 05:24:27;;;;;;;2.72;1.92;;;;;16.20;102533.00;;;;5062845;28;20192;-78
2022/04/15 05:27:00;;;;;;;2.90;2.00;;;;;16.20;102536.00;;;;5076151;28;20268;-79
2022/04/15 05:29:27;;;;;;;2.60;1.70;;;;;16.20;102536.00;;;;5077060;28;20199;-78
2022/04/15 05:31:54;;;;;;;2.38;1.98;;;;;16.20;102541.00;;;;5078052;28;20194;-78
2022/04/15 05:34:21;;;;;;;2.67;2.08;;;;;16.20;102545.00;;;;5088096;28;20218;-78
2022/04/15 05:36:49;;;;;;;2.90;2.15;;;;;16.20;102547.00;;;;5088073;28;20230;-78
2022/04/15 05:39:16;;;;;;;2.72;2.00;;;;;16.20;102554.00;;;;5089194;28;20206;-78
2022/04/15 05:41:44;;;;;;;2.67;2.03;;;;;16.20;102560.00;;;;5090157;28;20211;-78
2022/04/15 05:44:14;;;;;;;2.75;2.20;;;;;16.20;102557.00;;;;5088836;28;20221;-78
2022/04/15 05:46:42;;;;;;;2.70;2.47;;;;;16.20;102558.00;;;;5081662;28;20187;-77
2022/04/15 05:49:13;;;;;;;4.43;1.75;;;;;16.20;102558.00;;;;5072918;28;20577;-77
2022/04/15 05:51:42;;;;;;;4.03;2.58;;;;;16.20;102569.00;;;;5073027;28;20680;-78
2022/04/15 05:54:09;;;;;;;3.47;2.42;;;;;16.20;102568.00;;;;5080057;28;20291;-79
2022/04/15 05:56:37;;;;;;;2.78;2.53;;;;;16.20;102563.00;;;;5081465;28;20260;-79
2022/04/15 05:59:04;;;;;;;3.00;2.70;;;;;16.20;102571.00;;;;5075946;28;20199;-79
2022/04/15 06:01:33;;;;;;;4.07;2.70;;;;;16.20;102573.00;;;;5070178;28;20570;-78
2022/04/15 06:04:00;;;;;;;3.28;2.60;;;;;16.20;102573.00;;;;5072636;28;20285;-78
2022/04/15 06:06:28;;;;;;;4.18;2.78;;;;;16.20;102576.00;;;;5068336;28;20199;-78
2022/04/15 06:08:55;;;;;;;4.60;3.55;;;;;16.20;102581.00;;;;5072406;28;20210;-78
2022/04/15 06:11:22;;;;;;;3.67;2.63;;;;;16.20;102585.00;;;;5069376;28;20199;-78
2022/04/15 06:13:51;;;;;;;3.80;3.00;;;;;16.20;102588.00;;;;5083807;28;20215;-78
2022/04/15 06:16:20;;;;;;;4.65;2.63;;;;;16.20;102589.00;;;;5089787;28;20199;-78
2022/04/15 06:18:49;;;;;;;2.70;2.40;;;;;16.20;102594.00;;;;5082282;28;20262;-77
2022/04/15 06:21:16;;;;;;;2.95;2.53;;;;;16.20;102599.00;;;;5071877;28;20230;-77
2022/04/15 06:23:44;;;;;;;3.53;2.85;;;;;16.30;102597.00;;;;5066127;28;20202;-77
2022/04/15 06:26:11;;;;;;;4.25;2.47;;;;;16.30;102600.00;;;;5078760;28;20203;-77
2022/04/15 06:28:38;;;;;;;2.50;2.30;;;;;16.30;102612.00;;;;5076214;28;20203;-76
2022/04/15 06:31:05;;;;;;;3.47;2.60;;;;;16.30;102607.00;;;;5077855;28;20233;-78
2022/04/15 06:33:37;;;;;;;6.03;3.33;;;;;16.40;102608.00;;;;5075900;28;20191;-78
2022/04/15 06:36:08;;;;;;;3.20;2.90;;;;;16.30;102615.00;;;;5068294;28;20218;-77
2022/04/15 06:38:36;;;;;;;5.00;2.45;;;;;16.40;102613.00;;;;5074956;28;20225;-78
2022/04/15 06:41:12;;;;;;;2.90;2.60;;;;;16.40;102622.00;;;;5074881;28;20195;-78
2022/04/15 06:43:40;;;;;;;2.85;2.63;;;;;16.50;102620.00;;;;5068988;28;20201;-78
2022/04/15 06:46:07;;;;;;;2.92;2.25;;;;;16.60;102632.00;;;;5066056;28;20662;-79
2022/04/15 06:48:35;;;;;;;4.85;2.60;;;;;16.60;102622.00;;;;5060106;28;20204;-78
2022/04/15 06:51:02;;;;;;;3.03;2.28;;;;;16.70;102635.00;;;;5068918;28;20214;-78
2022/04/15 06:53:31;;;;;;;3.45;2.45;;;;;16.70;102632.00;;;;5067914;28;20219;-77
2022/04/15 06:55:59;;;;;;;3.03;2.38;;;;;16.80;102639.00;;;;5073898;28;20214;-76
2022/04/15 06:58:26;;;;;;;5.90;2.70;;;;;16.80;102632.00;;;;5059332;28;20195;-77
2022/04/15 07:00:54;;;;;;;2.15;1.95;;;;;16.90;102629.00;;;;5072714;28;20289;-77
2022/04/15 07:03:21;;;;;;;3.38;2.50;;;;;16.90;102628.00;;;;5074482;28;20199;-78
2022/04/15 07:05:49;;;;;;;2.50;1.90;;;;;16.90;102628.00;;;;5072888;28;20317;-78
2022/04/15 07:08:16;;;;;;;2.08;1.88;;;;;17.00;102629.00;;;;5058252;28;20199;-77
2022/04/15 07:10:45;;;;;;;2.67;1.40;;;;;17.10;102631.00;;;;5071179;28;20203;-77
2022/04/15 07:13:12;;;;;;;2.72;1.52;;;;;17.20;102634.00;;;;5060009;28;20195;-77
2022/04/15 07:15:39;;;;;;;3.08;1.50;;;;;17.20;102632.00;;;;5053852;28;20267;-77
2022/04/15 07:18:07;;;;;;;3.90;2.13;;;;;17.30;102629.00;;;;5058135;28;20554;-78
2022/04/15 07:20:35;;;;;;;4.28;1.75;;;;;17.30;102639.00;;;;5053031;28;20628;-78
2022/04/15 07:23:03;;;;;;;2.08;1.60;;;;;17.30;102641.00;;;;5068841;28;20214;-78
2022/04/15 07:25:30;;;;;;;1.95;1.83;;;;;17.30;102647.00;;;;5067180;28;20210;-78
2022/04/15 07:28:00;;;;;;;2.92;1.70;;;;;17.30;102640.00;;;;5052468;28;20211;-78
2022/04/15 07:30:29;;;;;;;2.28;1.45;;;;;17.40;102641.00;;;;5059437;28;20233;-78
2022/04/15 07:32:56;;;;;;;1.65;1.45;;;;;17.40;102644.00;;;;5068232;28;20203;-78
2022/04/15 07:35:24;;;;;;;4.05;1.48;;;;;17.40;102644.00;;;;5064756;28;20573;-78
2022/04/15 07:37:51;;;;;;;2.45;1.92;;;;;17.40;102658.00;;;;5055484;28;20207;-78
2022/04/15 07:40:18;;;;;;;2.58;1.75;;;;;17.40;102660.00;;;;5059460;28;20226;-78
2022/04/15 07:42:45;;;;;;;2.97;1.58;;;;;17.50;102657.00;;;;5052659;28;20199;-78
2022/04/15 07:45:14;;;;;;;2.38;1.88;;;;;17.50;102655.00;;;;5067107;28;20653;-78
2022/04/15 07:47:42;;;;;;;2.40;1.50;;;;;17.50;102659.00;;;;5064173;28;20669;-78
2022/04/15 07:50:10;;;;;;;1.80;1.52;;;;;17.60;102657.00;;;;5062308;28;20203;-78
2022/04/15 07:52:37;;;;;;;3.15;1.60;;;;;17.70;102653.00;;;;5054397;28;20214;-77
2022/04/15 07:55:05;;;;;;;1.27;1.17;;;;;17.70;102657.00;;;;5052765;28;20227;-78
2022/04/15 07:57:34;;;;;;;2.92;1.75;;;;;17.80;102657.00;;;;5055764;28;20210;-79
2022/04/15 08:00:01;;;;;;;1.70;1.60;;;;;17.80;102661.00;;;;5058653;28;20241;-79
2022/04/15 08:02:30;;;;;;;1.63;1.50;;;;;17.80;102660.00;;;;5061925;28;20199;-79
2022/04/15 08:04:57;;;;;;;1.83;1.35;;;;;17.80;102660.00;;;;5052742;28;20199;-79
2022/04/15 08:07:24;;;;;;;4.03;1.48;;;;;17.90;102662.00;;;;5059974;28;20190;-79
2022/04/15 08:09:51;;;;;;;1.35;1.25;;;;;18.00;102664.00;;;;5054933;28;20206;-79
2022/04/15 08:12:19;;;;;;;1.75;1.10;;;;;18.00;102658.00;;;;5062187;28;20203;-78
2022/04/15 08:14:46;;;;;;;1.80;1.10;;;;;18.10;102665.00;;;;5069021;28;20213;-81
2022/04/15 08:17:13;;;;;;;1.30;1.20;;;;;18.20;102666.00;;;;5059628;28;20206;-77
2022/04/15 08:19:42;;;;;;;3.10;1.85;;;;;18.20;102674.00;;;;5050801;28;20204;-76
2022/04/15 08:22:10;;;;;;;1.50;1.20;;;;;18.20;102675.00;;;;5057655;28;20199;-77
2022/04/15 08:24:42;;;;;;;2.70;1.30;;;;;18.20;102674.00;;;;5056114;28;20322;-77
2022/04/15 08:27:10;;;;;;;1.83;1.20;;;;;18.20;102674.00;;;;5068938;28;20782;-76
2022/04/15 08:29:39;;;;;;;1.33;1.23;;;;;18.20;102674.00;;;;5058253;28;20206;-78
2022/04/15 08:32:08;;;;;;;1.73;1.23;;;;;18.30;102668.00;;;;5073380;28;20238;-78
2022/04/15 08:34:36;;;;;;;1.83;1.23;;;;;18.30;102681.00;;;;5073406;28;20218;-77
2022/04/15 08:37:05;;;;;;;1.30;1.20;;;;;18.40;102677.00;;;;5058199;28;20227;-78
2022/04/15 08:39:32;;;;;;;1.48;1.38;;;;;18.40;102680.00;;;;5067444;28;20289;-77
2022/04/15 08:42:00;;;;;;;2.45;1.30;;;;;18.50;102688.00;;;;5056715;28;20199;-78
2022/04/15 08:44:30;;;;;;;1.40;1.20;;;;;18.50;102689.00;;;;5067187;28;20297;-78
2022/04/15 08:46:59;;;;;;;1.30;0.98;;;;;18.50;102692.00;;;;5052200;28;20203;-78
2022/04/15 08:49:27;;;;;;;2.53;1.38;;;;;18.50;102694.00;;;;5063834;28;20252;-78
2022/04/15 08:51:55;;;;;;;2.08;1.33;;;;;18.50;102688.00;;;;5058429;28;20273;-78
2022/04/15 08:54:23;;;;;;;1.30;1.02;;;;;18.50;102690.00;;;;5062927;28;20569;-77
2022/04/15 08:56:51;;;;;;;1.67;1.27;;;;;18.50;102691.00;;;;5059136;28;20195;-76
2022/04/15 08:59:18;;;;;;;4.18;1.30;;;;;18.60;102680.00;;;;5058685;28;20199;-78
2022/04/15 09:01:45;;;;;;;1.90;1.20;;;;;18.60;102689.00;;;;5066190;28;20725;-77
2022/04/15 09:04:14;;;;;;;2.15;1.15;;;;;18.60;102690.00;;;;5054386;28;20739;-77
2022/04/15 09:06:43;;;;;;;1.23;1.08;;;;;18.70;102697.00;;;;5069515;28;20233;-76
2022/04/15 09:09:13;;;;;;;2.10;1.60;;;;;18.70;102694.00;;;;5064418;28;20760;-76
2022/04/15 09:11:44;;;;;;;1.95;1.00;;;;;18.80;102706.00;;;;5061387;28;20199;-76
2022/04/15 09:14:14;;;;;;;2.60;1.45;;;;;18.90;102705.00;;;;5067314;28;20206;-77
2022/04/15 09:16:42;;;;;;;1.92;1.50;;;;;18.90;102704.00;;;;5056753;28;20210;-77
2022/04/15 09:19:11;;;;;;;2.63;1.20;;;;;19.00;102710.00;;;;5061817;28;20615;-76
2022/04/15 09:21:39;;;;;;;1.48;1.08;;;;;19.00;102712.00;;;;5051845;28;20194;-77
2022/04/15 09:24:08;;;;;;;1.75;1.02;;;;;19.10;102713.00;;;;5057830;28;20195;-77
2022/04/15 09:26:38;;;;;;;1.88;1.35;;;;;19.10;102718.00;;;;5061094;28;21801;-78
2022/04/15 09:29:06;;;;;;;1.40;1.20;;;;;19.20;102721.00;;;;5065741;28;20214;-78
2022/04/15 09:31:34;;;;;;;2.80;1.10;;;;;19.20;102723.00;;;;5063395;28;20206;-81
2022/04/15 09:34:03;;;;;;;1.42;1.10;;;;;19.30;102723.00;;;;5048097;28;20207;-78
2022/04/15 09:36:32;;;;;;;1.77;1.20;;;;;19.30;102718.00;;;;5061949;28;20231;-78
2022/04/15 09:39:02;;;;;;;2.47;0.98;;;;;19.30;102722.00;;;;5066611;28;20206;-78
2022/04/15 09:41:31;;;;;;;2.55;1.10;;;;;19.40;102727.00;;;;5067531;28;20222;-78
2022/04/15 09:44:00;;;;;;;1.70;1.27;;;;;19.40;102729.00;;;;5053674;28;20217;-78
2022/04/15 09:46:31;;;;;;;1.85;1.15;;;;;19.50;102732.00;;;;5066782;28;20199;-78
2022/04/15 09:49:07;;;;;;;1.73;1.40;;;;;19.60;102728.00;;;;5066461;28;20190;-78
2022/04/15 09:51:38;;;;;;;2.75;1.30;;;;;19.60;102733.00;;;;5061777;28;20199;-78
2022/04/15 09:54:06;;;;;;;1.42;1.10;;;;;19.70;102731.00;;;;5060719;28;20298;-78
2022/04/15 09:56:35;;;;;;;2.15;1.60;;;;;19.70;102729.00;;;;5066714;28;20787;-78
2022/04/15 09:59:08;;;;;;;1.75;1.20;;;;;19.80;102733.00;;;;5067838;28;20206;-78
2022/04/15 10:01:41;;;;;;;2.03;1.50;;;;;19.80;102737.00;;;;5059502;28;20287;-78
2022/04/15 10:04:10;;;;;;;1.40;1.30;;;;;19.90;102738.00;;;;5048042;28;20250;-78
2022/04/15 10:06:40;;;;;;;1.60;1.50;;;;;19.90;102745.00;;;;5047239;28;20644;-78
2022/04/15 10:09:10;;;;;;;1.38;1.13;;;;;20.00;102739.00;;;;5052837;28;20214;-78
2022/04/15 10:11:38;;;;;;;1.38;1.10;;;;;20.00;102737.00;;;;5067509;28;20241;-78
2022/04/15 10:14:06;;;;;;;3.35;1.48;;;;;20.10;102743.00;;;;5068710;28;20199;-78
2022/04/15 10:16:35;;;;;;;2.45;1.65;;;;;20.10;102745.00;;;;5052238;28;20222;-78
2022/04/15 10:19:04;;;;;;;2.13;1.42;;;;;20.10;102748.00;;;;5057973;28;20227;-78
2022/04/15 10:21:34;;;;;;;3.25;1.50;;;;;20.20;102751.00;;;;5050700;28;20666;-78
2022/04/15 10:24:02;;;;;;;2.60;1.38;;;;;20.20;102749.00;;;;5062008;28;20206;-78
2022/04/15 10:26:34;;;;;;;2.17;1.20;;;;;20.20;102743.00;;;;5054955;28;20191;-78
2022/04/15 10:29:04;;;;;;;1.45;1.30;;;;;20.30;102743.00;;;;5070705;28;20281;-78
2022/04/15 10:31:39;;;;;;;2.20;1.35;;;;;20.30;102752.00;;;;5068717;28;20206;-78
2022/04/15 10:34:13;;;;;;;4.05;1.27;;;;;20.30;102746.00;;;;5065289;28;20191;-78
2022/04/15 10:36:48;;;;;;;1.70;1.45;;;;;20.40;102743.00;;;;5067819;28;20603;-78
2022/04/15 10:39:18;;;;;;;2.22;1.30;;;;;20.40;102747.00;;;;5065914;28;20286;-78
2022/04/15 10:42:01;;;;;;;2.83;1.40;;;;;20.40;102744.00;;;;5050559;28;20214;-78
2022/04/15 10:44:30;;;;;;;2.45;1.52;;;;;20.50;102742.00;;;;5065885;28;20210;-77
2022/04/15 10:47:06;;;;;;;2.78;1.42;;;;;20.50;102739.00;;;;5067424;28;20302;-78
2022/04/15 10:49:35;;;;;;;5.55;1.42;;;;;20.60;102733.00;;;;5066023;28;20195;-78
2022/04/15 10:52:16;;;;;;;1.75;1.40;;;;;20.60;102739.00;;;;5057910;28;20558;-77
2022/04/15 10:54:45;;;;;;;2.40;1.38;;;;;20.70;102740.00;;;;5054162;28;20199;-78
2022/04/15 10:57:15;;;;;;;3.08;1.25;;;;;20.70;102742.00;;;;5055587;28;20201;-78
2022/04/15 11:02:42;;;;;;;2.10;1.90;;;;;20.80;102743.00;;;;5050484;28;20696;-78
2022/04/15 11:05:13;;;;;;;4.28;2.40;;;;;20.80;102741.00;;;;5050194;28;20665;-79
2022/04/15 11:07:47;;;;;;;5.25;2.65;;;;;20.80;102750.00;;;;5050282;28;20666;-79
2022/04/15 11:14:00;;;;;;;2.40;1.75;;;;;20.70;102736.00;;;;5050760;28;20230;-78
2022/04/15 11:16:44;;;;;;;2.97;2.05;;;;;20.70;102738.00;;;;5049954;28;20227;-79
2022/04/15 11:19:12;;;;;;;2.05;1.48;;;;;20.80;102736.00;;;;5048660;28;20246;-79
2022/04/15 11:21:41;;;;;;;2.95;1.75;;;;;20.90;102738.00;;;;5049651;28;20208;-79
2022/04/15 11:24:10;;;;;;;2.35;1.98;;;;;20.90;102735.00;;;;5054796;28;20657;-78
2022/04/15 11:26:39;;;;;;;1.85;1.50;;;;;20.90;102738.00;;;;5057597;28;20631;-79
2022/04/15 11:29:09;;;;;;;2.25;1.80;;;;;20.90;102734.00;;;;5050269;28;20204;-78
2022/04/15 11:31:38;;;;;;;2.83;1.70;;;;;21.00;102732.00;;;;5049441;28;20199;-79
2022/04/15 11:34:07;;;;;;;2.30;1.80;;;;;21.00;102738.00;;;;5050098;28;20666;-79
2022/04/15 11:36:37;;;;;;;2.25;1.88;;;;;21.00;102737.00;;;;5054872;28;20228;-79
2022/04/15 11:39:06;;;;;;;1.15;1.05;;;;;21.10;102745.00;;;;5065369;28;20665;-79
2022/04/15 11:41:34;;;;;;;2.20;1.52;;;;;21.10;102738.00;;;;5069907;28;20199;-79
2022/04/15 11:44:04;;;;;;;1.95;1.75;;;;;21.10;102742.00;;;;5069789;28;20225;-78
2022/04/15 11:46:43;;;;;;;2.25;1.75;;;;;21.00;102742.00;;;;5069071;28;20206;-79
2022/04/15 11:49:15;;;;;;;2.25;1.70;;;;;21.00;102740.00;;;;5069522;28;20248;-78
2022/04/15 11:51:48;;;;;;;2.65;1.60;;;;;21.00;102747.00;;;;5068910;28;20198;-78
2022/04/15 11:54:21;;;;;;;3.10;1.58;;;;;21.00;102752.00;;;;5058940;28;20686;-79
2022/04/15 11:56:54;;;;;;;2.97;1.55;;;;;21.00;102743.00;;;;5059375;28;20222;-79
2022/04/15 11:59:21;;;;;;;3.83;2.05;;;;;21.00;102744.00;;;;5068725;28;20281;-79
2022/04/15 12:01:49;;;;;;;3.70;1.55;;;;;21.00;102745.00;;;;5061133;28;20194;-77
2022/04/15 12:04:18;;;;;;;2.00;1.55;;;;;21.00;102748.00;;;;5048647;28;20214;-76
2022/04/15 12:06:46;;;;;;;1.80;1.60;;;;;21.00;102752.00;;;;5048121;28;20208;-76
2022/04/15 12:09:14;;;;;;;1.75;1.48;;;;;21.10;102747.00;;;;5048833;28;20196;-79
2022/04/15 12:11:43;;;;;;;2.22;1.60;;;;;21.10;102747.00;;;;5048181;28;20215;-78
2022/04/15 12:14:12;;;;;;;2.38;2.10;;;;;21.10;102749.00;;;;5050594;28;20195;-79
2022/04/15 12:16:40;;;;;;;2.95;2.08;;;;;21.20;102761.00;;;;5053128;28;20314;-79
2022/04/15 12:19:08;;;;;;;2.70;1.65;;;;;21.10;102750.00;;;;5059191;28;20191;-76
2022/04/15 12:21:37;;;;;;;2.30;1.70;;;;;21.10;102748.00;;;;5066896;28;20205;-77